Latest Weather Observations for Mawson*

IDT60801

Issued at 9:01 am EST Thursday 5 May 2016 (issued every 30 minutes, with the page automatically refreshed every 10 minutes)

About weather observations | Map of weather stations | Latest weather observations for ANT | Other Formats
Station Details ID: 300001 Name: MAWSON Lat: -67.60 Lon: 62.88 Height: 9.9 m
Data from the previous 72 hours. | See also: Recent months at Mawson*
Date/Time
EST
Temp
°C
App
Temp
°C
Dew
Point
Rel
Hum
%
Delta-T
°C
Wind Press
QNH
hPa
Press
MSL
hPa
Rain
since 9 am
mm
Dir
 
Spd
km/h
Gust
km/h
Spd
kts
Gust
kts
05/09:00am -18.8 -35.0 -31.3 32 - SE 65 82 35 44 1004.2 - -
05/08:30am -19.2 -36.2 -31.4 33 - SE 69 82 37 44 1003.9 - -
05/08:00am -18.2 -33.7 -32.2 28 - ESE 61 78 33 42 1004.2 - -
05/07:44am -19.3 -35.9 -31.8 32 - SE 67 85 36 46 1004.0 - -
05/07:30am -20.2 -36.8 -31.6 35 - SE 67 78 36 42 1003.7 - -
05/07:00am -20.2 -36.4 -31.9 34 - SE 65 83 35 45 1003.5 1003.7 -
05/06:35am -20.1 -36.3 -32.2 33 - SE 65 83 35 45 1003.7 - -
05/06:30am -20.1 -35.9 -32.2 33 - SE 63 76 34 41 1003.8 - -
05/06:00am -20.7 -36.2 -32.7 33 - SE 61 82 33 44 1004.2 - -
05/05:30am -20.3 -34.8 -33.0 31 - SE 56 80 30 43 1003.9 - -
05/05:23am -19.9 -35.0 -33.3 29 - SE 59 80 32 43 1003.8 - -
05/05:00am -20.2 -35.7 -32.9 31 - SE 61 74 33 40 1003.7 - -
05/04:30am -21.2 -36.7 -33.1 33 - SE 61 72 33 39 1003.8 - -
05/04:00am -20.5 -36.0 -33.1 31 - SE 61 74 33 40 1003.6 1003.8 -
05/03:43am -20.6 -35.1 -32.9 32 - SE 56 74 30 40 1003.5 - -
05/03:30am -20.8 -36.3 -33.1 32 - SE 61 72 33 39 1003.5 - -
05/03:00am -21.0 -35.7 -33.6 31 - SE 57 72 31 39 1003.2 - -
05/02:30am -21.5 -36.2 -33.7 32 - SE 57 72 31 39 1003.2 - -
05/02:00am -22.0 -37.5 -33.3 35 - SE 61 70 33 38 1003.3 - -
05/01:30am -21.6 -36.1 -33.2 34 - SE 56 70 30 38 1003.2 - -
05/01:00am -21.1 -36.2 -34.0 30 - SE 59 72 32 39 1003.1 1003.3 -
05/12:37am -20.3 -35.0 -34.0 28 - SE 57 78 31 42 1002.7 - -
05/12:30am -21.5 -36.0 -33.7 32 - SE 56 72 30 39 1003.1 - -
05/12:15am -20.9 -35.6 -34.2 29 - SE 57 76 31 41 1002.7 - -
05/12:00am -21.5 -36.6 -33.4 33 - SE 59 76 32 41 1002.6 - -
 
Date/Time
EST
Temp
°C
App
Temp
°C
Dew
Point
Rel
Hum
%
Delta-T
°C
Wind Press
QNH
hPa
Press
MSL
hPa
Rain
since 9 am
mm
Dir
 
Spd
km/h
Gust
km/h
Spd
kts
Gust
kts
04/11:35pm -21.6 -37.1 -33.5 33 - ESE 61 80 33 43 1002.0 - -
04/11:30pm -21.5 -37.4 -33.7 32 - SE 63 72 34 39 1002.2 - -
04/11:00pm -20.9 -35.0 -33.8 30 - SE 54 74 29 40 1002.0 - -
04/10:30pm -20.4 -34.5 -33.7 29 - SE 54 74 29 40 1001.9 - -
04/10:25pm -21.5 -35.6 -34.0 31 - SE 54 74 29 40 1001.6 - -
04/10:00pm -21.5 -37.7 -33.7 32 - SE 65 76 35 41 1001.3 1001.5 -
04/09:30pm -21.2 -36.7 -33.4 33 - SE 61 70 33 38 1001.2 - -
04/09:12pm -21.4 -35.5 -33.3 33 - SE 54 72 29 39 1001.0 - -
04/09:00pm -20.8 -34.9 -33.4 31 - SE 54 65 29 35 1001.1 - -
04/08:30pm -20.8 -34.2 -33.4 31 - SE 50 69 27 37 1000.8 - -
04/08:28pm -21.0 -34.4 -33.3 32 - SE 50 69 27 37 1000.6 - -
04/08:00pm -20.4 -32.4 -32.7 32 - SE 43 59 23 32 1000.6 - -
04/07:56pm -20.8 -32.5 -32.8 33 - SSE 41 59 22 32 1000.4 - -
04/07:30pm -20.4 -32.4 -32.7 32 - SSE 43 56 23 30 1000.1 - -
04/07:00pm -21.5 -33.7 -32.8 35 - SSE 44 57 24 31 1000.0 1000.2 -
04/06:30pm -21.1 -32.8 -32.2 36 - SSE 41 50 22 27 999.6 - -
04/06:00pm -21.7 -33.7 -33.0 35 - SSE 43 48 23 26 999.5 - -
04/05:30pm -22.5 -34.7 -32.3 41 - SSE 44 52 24 28 999.0 - -
04/05:00pm -21.1 -32.8 -33.0 34 - SSE 41 46 22 25 998.8 - -
04/04:30pm -21.6 -32.9 -32.9 35 - SE 39 50 21 27 998.8 - -
04/04:00pm -21.9 -32.8 -32.1 39 - SSE 37 44 20 24 998.6 998.8 -
04/03:30pm -22.1 -32.6 -33.3 36 - SE 35 43 19 23 998.6 - -
04/03:00pm -21.5 -32.0 -33.1 34 - SSE 35 44 19 24 998.2 - -
04/02:30pm -21.7 -33.8 -33.9 32 - SE 43 54 23 29 997.8 - -
04/02:00pm -21.6 -32.1 -33.5 33 - SE 35 46 19 25 997.6 - -
04/01:30pm -22.3 -33.2 -33.8 34 - SE 37 50 20 27 997.3 - -
04/01:00pm -23.4 -33.9 -32.7 42 - SSE 35 41 19 22 997.2 997.4 -
04/12:30pm -24.6 -36.6 -32.8 47 - SSE 43 48 23 26 997.2 - -
04/12:00pm -23.8 -33.0 -33.0 43 - SSE 28 33 15 18 997.1 - -
04/11:30am -24.2 -34.1 -32.3 47 - SSE 32 41 17 22 996.7 - -
04/11:18am -24.4 -33.6 -33.1 44 - SSE 28 43 15 23 996.7 - -
04/11:00am -23.1 -29.8 -32.1 44 - SE 15 22 8 12 996.8 - -
04/10:30am -22.2 -28.9 -33.1 37 - SE 15 20 8 11 996.3 - -
04/10:00am -21.9 -32.1 -33.8 33 - SE 33 41 18 22 996.0 996.2 -
04/09:30am -22.2 -33.9 -34.0 33 - ESE 41 52 22 28 996.1 - -
04/09:00am -23.1 -37.2 -33.4 38 - SE 54 59 29 32 995.6 - -
04/08:45am -22.6 -34.3 -34.1 34 - SE 41 52 22 28 995.4 - -
04/08:30am -20.5 -27.6 -34.5 27 - ESE 17 32 9 17 995.8 - -
04/08:00am -21.8 -31.8 -33.4 34 - SE 32 43 17 23 995.2 - -
04/07:30am -22.7 -31.9 -32.8 39 - SE 28 37 15 20 994.7 - -
04/07:00am -22.3 -32.4 -32.7 38 - SSE 33 41 18 22 994.2 994.4 -
04/06:35am -22.9 -30.6 -32.0 43 - E 20 28 11 15 993.8 - -
04/06:30am -24.1 -35.4 -31.9 49 - SSE 39 46 21 25 993.7 - -
04/06:00am -23.0 -32.6 -32.8 40 - SSE 30 35 16 19 993.8 - -
04/05:30am -22.8 -33.3 -32.9 39 - SSE 35 39 19 21 993.5 - -
04/05:00am -24.4 -36.6 -32.0 49 - SSE 44 52 24 28 993.0 - -
04/04:30am -24.8 -38.5 -32.4 49 - SSE 52 57 28 31 992.7 - -
04/04:00am -23.7 -33.8 -32.7 43 - SSE 33 41 18 22 992.5 992.7 -
04/03:30am -22.4 -31.2 -33.9 34 - SE 26 41 14 22 992.3 - -
04/03:00am -21.3 -29.0 -33.9 31 - ESE 20 32 11 17 992.2 - -
04/02:50am -21.8 -31.0 -34.0 32 - ESE 28 46 15 25 992.0 - -
04/02:44am -22.1 -31.3 -33.6 34 - SE 28 44 15 24 992.2 - -
04/02:30am -22.4 -28.0 -33.9 34 - S 9 20 5 11 992.1 - -
04/02:00am -22.5 -28.8 -33.1 38 - SSE 13 17 7 9 991.8 - -
04/01:30am -23.2 -32.8 -32.0 44 - SE 30 43 16 23 991.5 - -
04/01:13am -24.1 -34.2 -32.6 45 - ESE 33 44 18 24 991.3 - -
04/01:00am -23.5 -34.8 -32.5 43 - SSE 39 52 21 28 991.3 991.5 -
04/12:30am -23.6 -34.1 -32.8 43 - SE 35 44 19 24 991.0 - -
04/12:16am -23.9 -33.1 -32.9 43 - SSE 28 44 15 24 991.1 - -
04/12:00am -22.8 -29.9 -32.9 39 - SE 17 26 9 14 991.0 - -
 
Date/Time
EST
Temp
°C
App
Temp
°C
Dew
Point
Rel
Hum
%
Delta-T
°C
Wind Press
QNH
hPa
Press
MSL
hPa
Rain
since 9 am
mm
Dir
 
Spd
km/h
Gust
km/h
Spd
kts
Gust
kts
03/11:30pm -23.3 -31.7 -32.1 44 - SSE 24 30 13 16 990.8 - -
03/11:00pm -23.1 -32.3 -32.6 42 - SSE 28 32 15 17 990.6 - -
03/10:30pm -22.3 -28.3 -32.7 38 - SSE 11 19 6 10 990.7 - -
03/10:00pm -21.8 -28.5 -32.5 37 - SE 15 22 8 12 990.5 990.7 -
03/09:30pm -21.8 -28.1 -32.8 36 - SSE 13 19 7 10 990.6 - -
03/09:00pm -22.4 -29.5 -32.5 39 - S 17 24 9 13 990.3 - -
03/08:30pm -21.7 -26.7 -31.9 39 - SSE 6 15 3 8 990.4 - -
03/08:00pm -22.6 -32.2 -31.7 43 - S 30 35 16 19 989.9 - -
03/07:30pm -22.6 -32.5 -31.0 46 - SSE 32 44 17 24 990.0 - -
03/07:00pm -22.5 -33.4 -30.9 46 - S 37 46 20 25 989.6 989.8 -
03/06:30pm -22.0 -33.3 -31.1 44 - SSE 39 44 21 24 989.4 - -
03/06:13pm -22.9 -32.8 -31.3 46 - SSE 32 50 17 27 989.3 - -
03/06:10pm -22.3 -31.5 -31.7 42 - SSE 28 41 15 22 989.3 - -
03/06:00pm -20.0 -27.1 -31.8 34 - E 17 22 9 12 989.3 - -
03/05:30pm -20.9 -28.9 -32.0 36 - SE 22 33 12 18 989.2 - -
03/05:18pm -22.2 -32.1 -30.6 46 - SE 32 37 17 20 989.1 - -
03/05:00pm -22.1 -34.1 -30.5 46 - SSE 43 48 23 26 989.0 - -
03/04:30pm -22.0 -31.9 -30.9 44 - SSE 32 39 17 21 989.1 - -
03/04:00pm -22.7 -33.6 -31.1 46 - SSE 37 52 20 28 988.9 989.1 -
03/03:30pm -22.9 -36.2 -30.2 51 - S 50 57 27 31 988.7 - -
03/03:00pm -22.5 -34.5 -31.1 45 - S 43 52 23 28 988.6 - -
03/02:59pm -22.5 -34.5 -31.4 44 - S 43 52 23 28 988.6 - -
03/02:38pm -21.6 -34.2 -31.8 39 - SSE 46 67 25 36 988.3 - -
03/02:36pm -22.1 -34.1 -31.0 44 - SSE 43 50 23 27 988.5 - -
03/02:32pm -22.0 -32.1 -31.4 42 - S 33 52 18 28 988.5 - -
03/02:30pm -21.8 -31.4 -31.5 41 - S 30 39 16 21 988.8 - -
03/02:08pm -21.7 -32.2 -30.2 46 - SSE 35 54 19 29 988.7 - -
03/02:00pm -21.1 -30.6 -30.3 43 - SSE 30 35 16 19 989.1 - -
03/01:30pm -20.1 -29.6 -29.9 41 - SSE 30 39 16 21 989.0 - -
03/01:00pm -21.2 -30.7 -29.5 47 - SSE 30 39 16 21 989.4 989.6 -
03/12:30pm -20.3 -30.8 -29.8 42 - SSE 35 44 19 24 989.6 - -
03/12:00pm -22.2 -32.1 -30.0 49 - SE 32 37 17 20 989.8 - -
03/11:30am -20.3 -30.4 -30.9 38 - SSE 33 41 18 22 990.0 - -
03/11:00am -20.7 -31.2 -30.4 42 - SSE 35 39 19 21 990.2 - -
03/10:55am -19.3 -29.4 -30.3 37 - SSE 33 39 18 21 990.1 - -
03/10:30am -19.8 -32.0 -29.6 41 - SE 44 52 24 28 990.3 - -
03/10:18am -20.4 -31.3 -29.7 43 - SSE 37 57 20 31 990.0 - -
03/10:00am -20.7 -30.6 -29.7 44 - SSE 32 35 17 19 990.4 990.6 -
03/09:50am -20.3 -31.2 -29.8 42 - ESE 37 41 20 22 990.6 - -
03/09:30am -20.3 -32.3 -29.8 42 - SSE 43 52 23 28 990.6 - -
03/09:00am -20.2 -30.1 -29.0 45 - SSE 32 37 17 20 991.1 - -
03/08:30am -20.4 -29.9 -29.4 44 - ESE 30 32 16 17 991.6 - -
03/08:00am -19.6 -28.7 -29.7 40 - SSE 28 35 15 19 991.5 - -
03/07:30am -19.9 -28.7 -29.2 43 - SSE 26 32 14 17 991.6 - -
03/07:00am -20.4 -28.4 -29.7 43 - SSE 22 28 12 15 991.9 992.1 -
03/06:30am -18.9 -25.2 -28.3 43 - S 13 19 7 10 992.1 - -
03/06:00am -20.1 -29.2 -29.4 43 - SSE 28 32 15 17 992.2 - -
03/05:30am -20.3 -27.7 -28.4 48 - SE 19 24 10 13 992.4 - -
03/05:00am -20.7 -27.4 -28.8 48 - ESE 15 19 8 10 992.6 - -
03/04:30am -19.9 -25.1 -30.0 40 - W 7 13 4 7 992.6 - -
03/04:00am -20.0 -25.9 -29.6 42 - SW 11 15 6 8 992.7 992.9 -
03/03:30am -19.3 -25.6 -29.4 40 - SSE 13 17 7 9 993.1 - -
03/03:00am -20.1 -25.1 -30.7 38 - W 6 15 3 8 993.0 - -
03/02:33am -19.7 -27.3 -31.2 35 - S 20 24 11 13 993.2 - -
03/02:30am -19.7 -30.6 -31.2 35 - SSE 37 50 20 27 993.1 - -
03/02:25am -20.1 -31.0 -31.0 37 - SSE 37 56 20 30 993.1 - -
03/02:00am -20.8 -32.8 -30.5 41 - SSE 43 50 23 27 993.4 - -
03/01:30am -21.5 -34.1 -30.4 45 - SSE 46 52 25 28 993.4 - -
03/01:00am -21.0 -29.8 -29.5 46 - SSE 26 35 14 19 994.0 994.2 -
03/12:30am -20.7 -30.2 -28.8 48 - SSE 30 35 16 19 994.1 - -
03/12:00am -21.5 -34.5 -30.2 45 - SSE 48 59 26 32 994.0 - -
 
Date/Time
EST
Temp
°C
App
Temp
°C
Dew
Point
Rel
Hum
%
Delta-T
°C
Wind Press
QNH
hPa
Press
MSL
hPa
Rain
since 9 am
mm
Dir
 
Spd
km/h
Gust
km/h
Spd
kts
Gust
kts
02/11:30pm -21.8 -33.4 -31.0 43 - SSE 41 54 22 29 994.0 - -
02/11:00pm -21.0 -31.9 -30.0 44 - SSE 37 44 20 24 994.2 - -
02/10:30pm -20.3 -29.0 -28.6 47 - SSE 26 33 14 18 994.0 - -
02/10:00pm -18.7 -28.6 -26.9 48 - SSE 32 39 17 21 993.9 994.1 -
02/09:58pm -19.6 -29.7 -28.9 43 - S 33 39 18 21 993.9 - -
02/09:30pm -19.5 -30.4 -29.9 39 - SE 37 46 20 25 993.9 - -
02/09:00pm -20.3 -31.5 -29.6 43 - SSE 39 43 21 23 993.8 - -
02/08:30pm -20.2 -31.4 -29.5 43 - SSE 39 44 21 24 993.7 - -
02/08:00pm -18.9 -29.3 -27.6 46 - SSE 35 41 19 22 993.8 - -
02/07:30pm -18.8 -28.7 -28.0 44 - SSE 32 35 17 19 993.7 - -
02/07:00pm -17.8 -27.3 -27.3 43 - S 30 37 16 20 993.5 993.7 -
02/06:30pm -18.1 -27.6 -25.9 50 - S 30 35 16 19 993.5 - -
02/06:00pm -18.2 -28.0 -25.6 52 - S 32 35 17 19 993.3 - -
02/05:30pm -17.8 -27.6 -25.2 52 - S 32 35 17 19 992.9 - -
02/05:00pm -17.2 -25.9 -25.1 50 - S 26 30 14 16 992.7 - -
02/04:30pm -17.6 -25.9 -25.0 52 - S 24 30 13 16 992.6 - -
02/04:27pm -17.7 -26.0 -25.8 49 - S 24 30 13 16 992.6 - -
02/04:00pm -19.0 -29.8 -28.1 44 - SSE 37 41 20 22 992.5 992.7 -
02/03:30pm -19.8 -31.0 -28.4 46 - SSE 39 46 21 25 992.2 - -
02/03:00pm -19.5 -29.9 -27.9 47 - SSE 35 43 19 23 991.9 - -
02/02:30pm -19.5 -29.4 -27.9 47 - SSE 32 41 17 22 991.5 - -
02/02:21pm -19.4 -30.6 -27.6 48 - SSE 39 48 21 26 991.4 - -
02/02:00pm -19.7 -32.2 -28.3 46 - S 46 54 25 29 990.9 - -
02/01:30pm -18.7 -31.2 -27.9 44 - S 46 57 25 31 990.9 - -
02/01:02pm -19.4 -30.2 -26.9 51 - SSE 37 46 20 25 991.0 - -

Other Formats:

Comma delimited format used in spreadsheet applications
http://www.bom.gov.au/fwo/IDT60803/IDT60803.89564.axf

JavaScript Object Notation format (JSON) in row-major order
http://www.bom.gov.au/fwo/IDT60803/IDT60803.89564.json